Multratug 19 — PCHZ — position and weather

sailwx.info

Track history (hours):
 
Tides and Currents Weather Stations Pressure Air Temp Water Temp Dewpoint Dewpoint Depression Visibility Wind Speed Wind Dir Waves Ship Positions

Multratug 19

Last reported at 2014-Aug-20 05:21 UTC. Time now 2014-Aug-21 08:22 UTC.
Position N 40°59' E 028°60'.

Length 32 m; draft 5.4 m.

Type: Tug. MMSI: 245875000.

Date/timePositionNaut miles runAvg speedWind from/ knotsBaromVisibWave heightAir tempDewpointWater temp
2014-Aug-20 05:21N 40°59' E 028°60'160 7.0
2014-Aug-19 06:28N 39°49' E 025°52'  
2014-Aug-16 09:11N 35°54' E 014°45'0 0.0
2014-Aug-16 08:32N 35°54' E 014°45'31 6.1
2014-Aug-16 03:23N 35°55' E 014°06'910.8
2014-Aug-16 02:31N 36°00' E 013°56'1110.4
2014-Aug-16 01:26N 36°06' E 013°44'9 9.9
2014-Aug-16 00:30N 36°11' E 013°34'1010.5
2014-Aug-15 23:32N 36°16' E 013°24'1211.3
2014-Aug-15 22:27N 36°22' E 013°10'1011.1
2014-Aug-15 21:33N 36°27' E 012°60'1110.9
2014-Aug-15 20:33N 36°33' E 012°48'1110.5
2014-Aug-15 19:29N 36°39' E 012°37'910.0
2014-Aug-15 18:33N 36°44' E 012°27'1010.0
2014-Aug-15 17:33N 36°49' E 012°16'6310.4
2014-Aug-15 11:27N 37°22' E 011°08'1010.2
2014-Aug-15 10:28N 37°25' E 010°56'44110.2
2014-Aug-13 15:14N 36°50' E 001°45'1810.4
2014-Aug-13 13:34N 36°46' E 001°23'1010.4
2014-Aug-13 12:33N 36°45' E 001°10'1010.2
2014-Aug-13 11:33N 36°42' E 000°58'9210.2
2014-Aug-13 02:33N 36°23' W 000°54'1010.3
2014-Aug-13 01:32N 36°21' W 001°07'2210.2
2014-Aug-12 23:25N 36°17' W 001°33'1910.1
2014-Aug-12 21:33N 36°13' W 001°56'1510.9
2014-Aug-12 20:11N 36°10' W 002°14'15111.0
2014-Aug-12 06:28N 35°59' W 005°21'  
Track history (hours):
 
Tides and Currents Weather Stations Pressure Air Temp Water Temp Dewpoint Dewpoint Depression Visibility Wind Speed Wind Dir Waves Ship Positions

Multratug 19

Last reported at 2014-Aug-20 05:21 UTC. Time now 2014-Aug-21 08:22 UTC.
Position N 40°59' E 028°60'.

Length 32 m; draft 5.4 m.

Type: Tug. MMSI: 245875000.

Date/timePositionNaut miles runAvg speedWind from/ knotsBaromVisibWave heightAir tempDewpointWater temp
2014-Aug-20 05:21N 40°59' E 028°60'160 7.0
2014-Aug-19 06:28N 39°49' E 025°52'  
2014-Aug-16 09:11N 35°54' E 014°45'0 0.0
2014-Aug-16 08:32N 35°54' E 014°45'31 6.1
2014-Aug-16 03:23N 35°55' E 014°06'910.8
2014-Aug-16 02:31N 36°00' E 013°56'1110.4
2014-Aug-16 01:26N 36°06' E 013°44'9 9.9
2014-Aug-16 00:30N 36°11' E 013°34'1010.5
2014-Aug-15 23:32N 36°16' E 013°24'1211.3
2014-Aug-15 22:27N 36°22' E 013°10'1011.1
2014-Aug-15 21:33N 36°27' E 012°60'1110.9
2014-Aug-15 20:33N 36°33' E 012°48'1110.5
2014-Aug-15 19:29N 36°39' E 012°37'910.0
2014-Aug-15 18:33N 36°44' E 012°27'1010.0
2014-Aug-15 17:33N 36°49' E 012°16'6310.4
2014-Aug-15 11:27N 37°22' E 011°08'1010.2
2014-Aug-15 10:28N 37°25' E 010°56'44110.2
2014-Aug-13 15:14N 36°50' E 001°45'1810.4
2014-Aug-13 13:34N 36°46' E 001°23'1010.4
2014-Aug-13 12:33N 36°45' E 001°10'1010.2
2014-Aug-13 11:33N 36°42' E 000°58'9210.2
2014-Aug-13 02:33N 36°23' W 000°54'1010.3
2014-Aug-13 01:32N 36°21' W 001°07'2210.2
2014-Aug-12 23:25N 36°17' W 001°33'1910.1
2014-Aug-12 21:33N 36°13' W 001°56'1510.9
2014-Aug-12 20:11N 36°10' W 002°14'15111.0
2014-Aug-12 06:28N 35°59' W 005°21'  

Dump ship's entire track history